SCIB weather

Butachauques Airport
Isla Butachauques, Los Lagos Region, Chile

Public forecast

Using degrees Celsius for public forecast. Weather courtesy of forecast.io.

METAR (pilot weather report)

Closest report is Mocopulli Airport, 25.5 nm (47.3 km) W. Retrieved 2019/04/23 10:00 UTC (25 minutes ago):

SCPQ 231000Z AUTO 19010KT //// R35/P2000N NCD 08/06 Q1019

TAF (pilot weather forecast)

Forecast is more than 12 hours old.

Closest forecast is Mocopulli Airport, 25.5 nm (47.3 km) W. Retrieved 2019/04/22 12:00 UTC (22 hours ago):

TAF SCPQ 221106Z 2212/2224 VRB02KT 9999 OVC014 TN07/2212Z TX11/2220Z BECMG 2022/2024 15005KT SCT030